createdAt,value
2019-02-18T00:02:31.330Z,2.20
2019-02-18T00:05:01.415Z,2.00
2019-02-18T00:07:32.446Z,1.80
2019-02-18T00:10:04.260Z,1.70
2019-02-18T00:12:36.346Z,1.60
2019-02-18T00:15:10.418Z,1.50
2019-02-18T00:17:40.496Z,1.50
2019-02-18T00:20:10.582Z,1.50
2019-02-18T00:22:40.662Z,1.50
2019-02-18T00:25:15.350Z,1.60
2019-02-18T00:27:45.502Z,1.60
2019-02-18T00:30:15.642Z,1.60
2019-02-18T00:32:48.242Z,1.50
2019-02-18T00:35:19.338Z,1.50
2019-02-18T00:37:50.376Z,1.40
2019-02-18T00:40:34.746Z,1.20
2019-02-18T00:43:04.846Z,1.30
2019-02-18T00:45:34.918Z,1.30
2019-02-18T00:48:05.075Z,1.20
2019-02-18T00:50:36.099Z,1.20
2019-02-18T00:53:06.191Z,1.10
2019-02-18T00:55:38.238Z,1.00
2019-02-18T00:58:08.330Z,0.90
2019-02-18T01:00:38.448Z,0.90
2019-02-18T01:03:14.591Z,0.80
2019-02-18T01:05:46.655Z,0.80
2019-02-18T01:08:25.342Z,0.60
2019-02-18T01:10:58.014Z,0.50
2019-02-18T01:13:28.110Z,0.40
2019-02-18T01:15:58.243Z,0.20
2019-02-18T01:18:28.323Z,0.00
2019-02-18T01:20:58.403Z,-0.10
2019-02-18T01:23:28.562Z,-0.10
2019-02-18T01:26:03.742Z,-0.20
2019-02-18T01:28:42.918Z,-0.20
2019-02-18T01:31:16.102Z,-0.30
2019-02-18T01:33:52.283Z,-0.30
2019-02-18T01:36:23.137Z,-0.30
2019-02-18T01:38:54.338Z,-0.40
2019-02-18T01:41:26.491Z,-0.40
2019-02-18T01:44:03.489Z,-0.40
2019-02-18T01:46:49.884Z,-0.50
2019-02-18T01:49:20.926Z,-0.50
2019-02-18T01:51:54.610Z,-0.40
2019-02-18T01:54:28.307Z,-0.50
2019-02-18T01:56:59.374Z,-0.70
2019-02-18T01:59:29.734Z,-0.80
2019-02-18T02:01:59.861Z,-0.80
2019-02-18T02:04:29.934Z,-0.70
2019-02-18T02:07:00.011Z,-0.60
2019-02-18T02:09:33.169Z,-0.60
2019-02-18T02:12:03.276Z,-0.50
2019-02-18T02:14:42.398Z,-0.40
2019-02-18T02:17:12.483Z,-0.20
2019-02-18T02:19:43.650Z,-0.10
2019-02-18T02:22:21.766Z,-0.10
2019-02-18T02:24:51.860Z,0.00
2019-02-18T02:27:23.957Z,0.10
2019-02-18T02:29:54.039Z,0.10
2019-02-18T02:32:29.919Z,0.00
2019-02-18T02:35:00.020Z,-0.40
2019-02-18T02:37:37.131Z,-0.70
2019-02-18T02:40:10.263Z,-1.10
2019-02-18T02:42:43.411Z,-1.40
2019-02-18T02:45:19.555Z,-1.50
2019-02-18T02:47:49.667Z,-1.60
2019-02-18T02:50:25.897Z,-1.70
2019-02-18T02:52:59.038Z,-1.80
2019-02-18T02:55:30.076Z,-1.60
2019-02-18T02:58:00.149Z,-1.50
2019-02-18T03:00:32.415Z,-1.40
2019-02-18T03:03:03.777Z,-1.30
2019-02-18T03:05:33.856Z,-1.30
2019-02-18T03:08:03.939Z,-1.30
2019-02-18T03:10:34.667Z,-1.40
2019-02-18T03:13:04.932Z,-1.40
2019-02-18T03:15:35.010Z,-1.40
2019-02-18T03:18:05.107Z,-1.40
2019-02-18T03:20:41.105Z,-1.40
2019-02-18T03:23:21.378Z,-1.40
2019-02-18T03:25:58.529Z,-1.30
2019-02-18T03:28:46.030Z,-1.30
2019-02-18T03:31:20.756Z,-1.30
2019-02-18T03:34:28.535Z,-1.40
2019-02-18T03:37:01.702Z,-1.50
2019-02-18T03:39:31.794Z,-1.70
2019-02-18T03:42:05.316Z,-1.80
2019-02-18T03:44:35.411Z,-1.70
2019-02-18T03:47:06.472Z,-1.50
2019-02-18T03:49:36.595Z,-1.40
2019-02-18T03:52:06.706Z,-1.30
2019-02-18T03:54:36.811Z,-1.40
2019-02-18T03:57:07.903Z,-1.30
2019-02-18T03:59:38.054Z,-1.30
2019-02-18T04:02:08.183Z,-1.30
2019-02-18T04:04:39.299Z,-1.30
2019-02-18T04:07:10.368Z,-1.30
2019-02-18T04:09:40.459Z,-1.30
2019-02-18T04:12:16.405Z,-1.40
2019-02-18T04:14:47.497Z,-1.40
2019-02-18T04:17:17.594Z,-1.50
2019-02-18T04:19:48.664Z,-1.50
2019-02-18T04:22:19.847Z,-1.60
2019-02-18T04:24:51.841Z,-1.60
2019-02-18T04:27:23.931Z,-1.70
2019-02-18T04:29:54.033Z,-1.70
2019-02-18T04:32:24.198Z,-1.80
2019-02-18T04:34:54.243Z,-1.80
2019-02-18T04:37:24.339Z,-1.80
2019-02-18T04:39:55.475Z,-1.80
2019-02-18T04:42:25.554Z,-1.90
2019-02-18T04:44:55.651Z,-1.90
2019-02-18T04:47:25.748Z,-1.80
2019-02-18T04:50:03.651Z,-2.10
2019-02-18T04:52:33.764Z,-2.30
2019-02-18T04:55:05.865Z,-2.50
2019-02-18T04:57:45.203Z,-2.50
2019-02-18T05:00:18.513Z,-2.40
2019-02-18T05:02:48.623Z,-2.30
2019-02-18T05:05:25.489Z,-2.40
2019-02-18T05:07:56.415Z,-2.50
2019-02-18T05:10:26.597Z,-2.50
2019-02-18T05:12:56.709Z,-2.50
2019-02-18T05:15:26.848Z,-2.60
2019-02-18T05:17:56.939Z,-2.60
2019-02-18T05:20:34.795Z,-2.60
2019-02-18T05:23:04.919Z,-2.60
2019-02-18T05:25:42.825Z,-2.50
2019-02-18T05:28:14.904Z,-2.50
2019-02-18T05:30:44.997Z,-2.60
2019-02-18T05:33:15.130Z,-2.60
2019-02-18T05:35:52.031Z,-2.50
2019-02-18T05:38:23.040Z,-2.40
2019-02-18T05:40:53.144Z,-2.30
2019-02-18T05:43:25.225Z,-2.20
2019-02-18T05:45:55.373Z,-2.20
2019-02-18T05:48:25.432Z,-2.20
2019-02-18T05:51:02.971Z,-2.20
2019-02-18T05:53:33.063Z,-2.30
2019-02-18T05:56:03.261Z,-2.20
2019-02-18T05:58:35.262Z,-2.20
2019-02-18T06:01:06.321Z,-2.30
2019-02-18T06:03:36.415Z,-2.30
2019-02-18T06:06:25.847Z,-2.30
2019-02-18T06:08:56.927Z,-2.30
2019-02-18T06:11:31.464Z,-2.30
2019-02-18T06:14:02.489Z,-2.40
2019-02-18T06:16:42.540Z,-2.50
2019-02-18T06:19:12.695Z,-2.40
2019-02-18T06:21:43.721Z,-2.40
2019-02-18T06:24:13.820Z,-2.30
2019-02-18T06:26:49.876Z,-2.30
2019-02-18T06:29:31.362Z,-2.30
2019-02-18T06:32:01.509Z,-2.30
2019-02-18T06:34:31.622Z,-2.30
2019-02-18T06:37:01.747Z,-2.20
2019-02-18T06:39:40.931Z,-2.20
2019-02-18T06:42:03.646Z,-2.10
2019-02-18T06:44:35.399Z,-2.00
2019-02-18T06:47:07.459Z,-2.00
2019-02-18T06:49:38.553Z,-1.90
2019-02-18T06:52:08.647Z,-1.80
2019-02-18T06:54:44.083Z,-1.70
2019-02-18T06:57:24.139Z,-1.50
2019-02-18T07:00:00.103Z,-1.30
2019-02-18T07:02:37.624Z,-1.20
2019-02-18T07:05:11.393Z,-1.10
2019-02-18T07:07:57.268Z,-0.90
2019-02-18T07:10:37.561Z,-0.70
2019-02-18T07:13:08.636Z,-0.20
2019-02-18T07:15:39.665Z,0.70
2019-02-18T07:18:10.695Z,1.50
2019-02-18T07:20:40.911Z,2.40
2019-02-18T07:23:12.540Z,3.40
2019-02-18T07:25:43.608Z,4.20
2019-02-18T07:28:14.635Z,5.00
2019-02-18T07:30:45.679Z,5.70
2019-02-18T07:33:15.891Z,6.10
2019-02-18T07:35:45.975Z,6.30
2019-02-18T07:38:19.303Z,6.60
2019-02-18T07:40:50.351Z,6.90
2019-02-18T07:43:23.073Z,7.10
2019-02-18T07:45:59.317Z,7.50
2019-02-18T07:48:36.833Z,7.50
2019-02-18T07:51:07.775Z,7.70
2019-02-18T07:53:38.864Z,7.90
2019-02-18T07:56:08.953Z,8.00
2019-02-18T07:58:41.053Z,8.30
2019-02-18T08:01:11.167Z,8.70
2019-02-18T08:03:41.299Z,8.80
2019-02-18T08:06:11.406Z,9.00
2019-02-18T08:08:48.517Z,9.30
2019-02-18T08:11:25.368Z,9.70
2019-02-18T08:14:01.664Z,9.90
2019-02-18T08:16:31.853Z,9.90
2019-02-18T08:19:02.883Z,9.90
2019-02-18T08:21:32.973Z,9.80
2019-02-18T08:24:03.086Z,10.20
2019-02-18T08:26:35.095Z,10.40
2019-02-18T08:29:05.207Z,10.70
2019-02-18T08:31:42.374Z,11.00
2019-02-18T08:34:12.548Z,11.10
2019-02-18T08:36:42.635Z,11.20
2019-02-18T08:39:13.660Z,11.50
2019-02-18T08:41:48.736Z,12.10
2019-02-18T08:44:18.825Z,12.80
2019-02-18T08:46:48.911Z,12.90
2019-02-18T08:49:22.043Z,12.60
2019-02-18T08:51:52.132Z,12.60
2019-02-18T08:54:22.251Z,12.50
2019-02-18T08:56:58.120Z,12.70
2019-02-18T08:59:30.266Z,13.20
2019-02-18T09:02:01.223Z,13.60
2019-02-18T09:04:31.315Z,13.70
2019-02-18T09:07:02.391Z,13.60
2019-02-18T09:09:32.618Z,13.60
2019-02-18T09:12:09.109Z,13.80
2019-02-18T09:14:39.195Z,14.10
2019-02-18T09:17:10.235Z,14.40
2019-02-18T09:19:41.485Z,14.30
2019-02-18T09:22:31.592Z,14.70
2019-02-18T09:25:03.348Z,15.00
2019-02-18T09:27:33.495Z,14.80
2019-02-18T09:30:04.744Z,15.10
2019-02-18T09:32:40.745Z,15.40
2019-02-18T09:35:10.944Z,15.80
2019-02-18T09:37:41.043Z,16.40
2019-02-18T09:40:12.174Z,17.10
2019-02-18T09:42:42.260Z,18.20
2019-02-18T09:45:15.988Z,19.00
2019-02-18T09:47:49.132Z,18.80
2019-02-18T09:50:31.832Z,18.50
2019-02-18T09:53:02.577Z,18.40
2019-02-18T09:55:34.333Z,18.50
2019-02-18T09:58:06.301Z,18.70
2019-02-18T10:00:43.188Z,19.30
2019-02-18T10:03:13.321Z,19.70
2019-02-18T10:05:43.416Z,20.00
2019-02-18T10:08:15.404Z,20.30
2019-02-18T10:10:55.973Z,20.40
2019-02-18T10:13:21.458Z,20.70
2019-02-18T10:15:51.558Z,21.00
2019-02-18T10:18:21.648Z,21.00
2019-02-18T10:20:51.744Z,21.00
2019-02-18T10:23:21.832Z,21.20
2019-02-18T10:25:54.592Z,21.80
2019-02-18T10:28:24.704Z,21.90
2019-02-18T10:30:54.776Z,21.50
2019-02-18T10:33:24.890Z,21.70
2019-02-18T10:35:54.984Z,22.90
2019-02-18T10:38:27.040Z,23.30
2019-02-18T10:41:07.069Z,23.40
2019-02-18T10:43:32.905Z,23.50
2019-02-18T10:46:21.163Z,23.20
2019-02-18T10:48:53.472Z,23.00
2019-02-18T10:51:23.566Z,22.90
2019-02-18T10:53:55.716Z,22.70
2019-02-18T10:56:25.995Z,21.90
2019-02-18T10:58:56.121Z,21.60
2019-02-18T11:01:30.373Z,22.40
2019-02-18T11:04:01.412Z,23.30
2019-02-18T11:06:33.413Z,23.50
2019-02-18T11:09:05.092Z,24.00
2019-02-18T11:11:38.352Z,23.90
2019-02-18T11:14:08.450Z,23.20
2019-02-18T11:16:44.724Z,23.10
2019-02-18T11:19:17.607Z,23.20
2019-02-18T11:21:55.421Z,22.70
2019-02-18T11:24:27.460Z,22.70
2019-02-18T11:27:04.740Z,22.30
2019-02-18T11:29:35.881Z,23.40
2019-02-18T11:32:13.945Z,23.70
2019-02-18T11:34:43.724Z,24.00
2019-02-18T11:37:15.083Z,23.00
2019-02-18T11:39:45.204Z,23.60
2019-02-18T11:42:17.937Z,24.70
2019-02-18T11:44:48.029Z,25.10
2019-02-18T11:47:18.208Z,25.20
2019-02-18T11:49:48.473Z,25.50
2019-02-18T11:52:18.580Z,25.50
2019-02-18T11:54:48.689Z,25.30
2019-02-18T11:57:19.784Z,25.00
2019-02-18T11:59:52.438Z,25.60
2019-02-18T12:02:24.732Z,26.60
2019-02-18T12:04:54.825Z,26.90
2019-02-18T12:07:26.923Z,26.60
2019-02-18T12:09:57.016Z,26.70
2019-02-18T12:12:40.179Z,27.30
2019-02-18T12:15:15.598Z,27.90
2019-02-18T12:17:45.716Z,28.70
2019-02-18T12:20:18.541Z,28.50
2019-02-18T12:22:48.629Z,28.30
2019-02-18T12:25:18.722Z,28.30
2019-02-18T12:27:48.805Z,27.80
2019-02-18T12:30:29.698Z,27.40
2019-02-18T12:32:59.795Z,26.80
2019-02-18T12:35:31.532Z,25.60
2019-02-18T12:38:01.681Z,26.00
2019-02-18T12:40:32.748Z,26.40
2019-02-18T12:43:02.844Z,27.10
2019-02-18T12:45:34.966Z,27.20
2019-02-18T12:48:07.001Z,27.00
2019-02-18T12:50:40.400Z,26.60
2019-02-18T12:53:12.473Z,26.60
2019-02-18T12:55:43.535Z,26.50
2019-02-18T12:58:14.548Z,25.70
2019-02-18T13:00:45.581Z,24.70
2019-02-18T13:03:16.329Z,24.20
2019-02-18T13:05:47.570Z,24.20
2019-02-18T13:08:25.153Z,25.10
2019-02-18T13:10:55.413Z,26.60
2019-02-18T13:13:26.489Z,25.80
2019-02-18T13:15:56.578Z,25.30
2019-02-18T13:18:27.601Z,25.50
2019-02-18T13:21:00.670Z,26.30
2019-02-18T13:23:30.781Z,26.60
2019-02-18T13:26:01.977Z,26.40
2019-02-18T13:28:32.075Z,26.30
2019-02-18T13:31:02.261Z,25.80
2019-02-18T13:33:32.783Z,25.90
2019-02-18T13:36:06.385Z,26.00
2019-02-18T13:38:44.305Z,26.70
2019-02-18T13:41:15.406Z,26.80
2019-02-18T13:43:45.524Z,27.50
2019-02-18T13:46:17.750Z,26.50
2019-02-18T13:48:49.833Z,25.50
2019-02-18T13:51:25.028Z,26.00
2019-02-18T13:54:01.821Z,26.40
2019-02-18T13:56:32.293Z,26.60
2019-02-18T13:59:02.373Z,26.20
2019-02-18T14:01:34.437Z,26.20
2019-02-18T14:04:04.566Z,25.30
2019-02-18T14:06:35.878Z,24.50
2019-02-18T14:09:07.210Z,24.40
2019-02-18T14:11:38.191Z,24.10
2019-02-18T14:14:08.300Z,23.30
2019-02-18T14:16:44.171Z,23.50
2019-02-18T14:19:14.252Z,24.50
2019-02-18T14:21:45.353Z,24.80
2019-02-18T14:24:15.502Z,24.90
2019-02-18T14:26:45.621Z,24.30
2019-02-18T14:29:15.705Z,24.30
2019-02-18T14:31:51.681Z,24.50
2019-02-18T14:34:27.605Z,24.70
2019-02-18T14:36:57.698Z,25.30
2019-02-18T14:39:28.685Z,25.80
2019-02-18T14:41:58.780Z,26.20
2019-02-18T14:44:28.865Z,26.40
2019-02-18T14:46:58.985Z,26.80
2019-02-18T14:49:29.085Z,26.80
2019-02-18T14:52:00.146Z,26.50
2019-02-18T14:54:30.245Z,26.20
2019-02-18T14:57:00.409Z,26.10
2019-02-18T14:59:30.619Z,25.90
2019-02-18T15:02:01.129Z,26.10
2019-02-18T15:04:31.221Z,25.80
2019-02-18T15:07:01.385Z,25.30
2019-02-18T15:09:31.505Z,25.40
2019-02-18T15:12:14.609Z,25.40
2019-02-18T15:14:44.725Z,25.20
2019-02-18T15:17:18.873Z,24.70
2019-02-18T15:19:54.890Z,24.70
2019-02-18T15:22:25.961Z,24.70
2019-02-18T15:24:59.173Z,24.10
2019-02-18T15:27:29.285Z,23.80
2019-02-18T15:29:59.385Z,23.70
2019-02-18T15:32:29.729Z,23.60
2019-02-18T15:35:00.947Z,23.10
2019-02-18T15:37:31.209Z,22.80
2019-02-18T15:40:01.301Z,22.90
2019-02-18T15:42:31.420Z,23.00
2019-02-18T15:45:04.026Z,23.00
2019-02-18T15:47:40.130Z,22.80
2019-02-18T15:50:14.125Z,22.20
2019-02-18T15:52:46.917Z,21.60
2019-02-18T15:55:17.155Z,21.20
2019-02-18T15:57:47.269Z,20.90
2019-02-18T16:00:21.922Z,20.80
2019-02-18T16:03:03.745Z,20.60
2019-02-18T16:05:38.917Z,20.20
2019-02-18T16:08:09.013Z,19.70
2019-02-18T16:10:42.033Z,19.30
2019-02-18T16:13:15.948Z,19.20
2019-02-18T16:15:46.017Z,18.90
2019-02-18T16:18:18.106Z,18.50
2019-02-18T16:20:49.161Z,18.00
2019-02-18T16:23:19.245Z,17.40
2019-02-18T16:25:53.493Z,17.00
2019-02-18T16:28:25.497Z,16.40
2019-02-18T16:30:55.589Z,15.80
2019-02-18T16:33:26.665Z,15.00
2019-02-18T16:35:56.770Z,14.20
2019-02-18T16:38:27.769Z,13.10
2019-02-18T16:40:58.101Z,12.00
2019-02-18T16:43:28.462Z,11.10
2019-02-18T16:45:58.553Z,10.50
2019-02-18T16:48:28.846Z,10.00
2019-02-18T16:50:59.457Z,9.60
2019-02-18T16:53:30.513Z,9.10
2019-02-18T16:56:00.609Z,8.80
2019-02-18T16:58:31.752Z,8.30
2019-02-18T17:01:04.465Z,7.80
2019-02-18T17:03:35.582Z,7.30
2019-02-18T17:06:11.479Z,6.80
2019-02-18T17:08:43.530Z,6.50
2019-02-18T17:11:15.585Z,6.40
2019-02-18T17:13:45.681Z,6.30
2019-02-18T17:16:21.913Z,6.00
2019-02-18T17:18:52.022Z,5.70
2019-02-18T17:21:22.101Z,5.40
2019-02-18T17:23:52.191Z,5.20
2019-02-18T17:26:23.278Z,5.00
2019-02-18T17:28:58.826Z,4.80
2019-02-18T17:31:38.969Z,4.60
2019-02-18T17:34:10.017Z,4.50
2019-02-18T17:36:40.106Z,4.40
2019-02-18T17:39:12.322Z,4.30
2019-02-18T17:41:42.423Z,4.40
2019-02-18T17:44:20.028Z,4.50
2019-02-18T17:46:44.321Z,4.40
2019-02-18T17:49:15.369Z,4.50
2019-02-18T17:51:45.450Z,4.40
2019-02-18T17:54:16.701Z,4.30
2019-02-18T17:56:46.805Z,4.20
2019-02-18T17:59:16.889Z,4.10
2019-02-18T18:01:46.974Z,3.80
2019-02-18T18:04:17.075Z,3.70
2019-02-18T18:06:47.154Z,3.60
2019-02-18T18:09:19.399Z,3.70
2019-02-18T18:11:51.418Z,3.70
2019-02-18T18:14:21.720Z,3.50
2019-02-18T18:16:51.838Z,3.40
2019-02-18T18:19:21.938Z,3.20
2019-02-18T18:21:52.198Z,3.20
2019-02-18T18:24:22.310Z,3.20
2019-02-18T18:26:53.353Z,3.30
2019-02-18T18:29:24.182Z,3.10
2019-02-18T18:31:59.219Z,3.00
2019-02-18T18:34:30.470Z,3.00
2019-02-18T18:37:00.574Z,3.10
2019-02-18T18:39:30.686Z,3.00
2019-02-18T18:42:03.830Z,3.00
2019-02-18T18:44:33.923Z,2.90
2019-02-18T18:47:06.218Z,2.70
2019-02-18T18:49:36.322Z,2.80
2019-02-18T18:52:08.679Z,2.80
2019-02-18T18:54:38.762Z,2.80
2019-02-18T18:57:10.754Z,2.70
2019-02-18T18:59:47.119Z,2.50
2019-02-18T19:02:26.570Z,2.40
2019-02-18T19:04:56.799Z,2.50
2019-02-18T19:07:27.766Z,2.70
2019-02-18T19:09:58.446Z,2.60
2019-02-18T19:12:29.711Z,2.40
2019-02-18T19:15:00.298Z,2.30
2019-02-18T19:17:32.258Z,2.50
2019-02-18T19:20:03.418Z,2.60
2019-02-18T19:22:33.783Z,2.70
2019-02-18T19:25:08.690Z,2.40
2019-02-18T19:27:39.898Z,2.10
2019-02-18T19:30:31.044Z,2.00
2019-02-18T19:33:03.123Z,1.70
2019-02-18T19:35:35.201Z,1.50
2019-02-18T19:38:06.238Z,1.30
2019-02-18T19:40:38.382Z,1.10
2019-02-18T19:43:09.742Z,1.00
2019-02-18T19:45:43.386Z,1.10
2019-02-18T19:48:14.482Z,1.20
2019-02-18T19:50:44.594Z,1.20
2019-02-18T19:53:16.251Z,1.10
2019-02-18T19:55:54.462Z,1.00
2019-02-18T19:58:30.330Z,1.00
2019-02-18T20:01:00.410Z,0.90
2019-02-18T20:03:31.388Z,0.70
2019-02-18T20:06:23.783Z,0.50
2019-02-18T20:09:13.798Z,0.50
2019-02-18T20:11:44.360Z,0.50
2019-02-18T20:14:14.454Z,0.60
2019-02-18T20:16:45.726Z,0.90
2019-02-18T20:19:16.757Z,1.10
2019-02-18T20:21:47.722Z,1.20
2019-02-18T20:24:17.831Z,1.20
2019-02-18T20:26:53.130Z,1.30
2019-02-18T20:29:26.544Z,1.40
2019-02-18T20:31:56.622Z,1.50
2019-02-18T20:34:28.502Z,1.60
2019-02-18T20:36:59.550Z,1.70
2019-02-18T20:39:29.719Z,1.50
2019-02-18T20:42:00.262Z,1.10
2019-02-18T20:44:30.434Z,0.80
2019-02-18T20:47:00.534Z,0.70
2019-02-18T20:49:30.846Z,0.60
2019-02-18T20:52:01.348Z,0.60
2019-02-18T20:54:31.669Z,0.50
2019-02-18T20:57:01.750Z,0.50
2019-02-18T20:59:32.510Z,0.50
2019-02-18T21:02:04.530Z,0.50
2019-02-18T21:04:35.370Z,0.50
2019-02-18T21:07:05.490Z,0.50
2019-02-18T21:09:35.564Z,0.50
2019-02-18T21:12:06.210Z,0.50
2019-02-18T21:14:36.298Z,0.30
2019-02-18T21:17:09.188Z,0.20
2019-02-18T21:19:41.198Z,0.10
2019-02-18T21:22:11.307Z,0.10
2019-02-18T21:24:41.386Z,0.10
2019-02-18T21:27:13.508Z,0.10
2019-02-18T21:29:43.975Z,0.00
2019-02-18T21:32:15.944Z,-0.10
2019-02-18T21:34:46.034Z,-0.10
2019-02-18T21:37:21.907Z,-0.20
2019-02-18T21:39:52.009Z,-0.30
2019-02-18T21:42:23.386Z,-0.30
2019-02-18T21:44:53.425Z,-0.20
2019-02-18T21:47:24.461Z,0.00
2019-02-18T21:49:55.534Z,-0.10
2019-02-18T21:52:25.622Z,-0.20
2019-02-18T21:54:56.991Z,-0.20
2019-02-18T21:57:28.986Z,0.00
2019-02-18T21:59:59.062Z,0.00
2019-02-18T22:02:30.094Z,-0.10
2019-02-18T22:05:00.328Z,-0.10
2019-02-18T22:07:30.451Z,-0.10
2019-02-18T22:10:00.531Z,-0.10
2019-02-18T22:12:40.727Z,0.00
2019-02-18T22:15:15.175Z,0.10
2019-02-18T22:17:47.180Z,0.40
2019-02-18T22:20:18.640Z,0.70
2019-02-18T22:22:50.406Z,0.90
2019-02-18T22:25:21.434Z,0.80
2019-02-18T22:27:51.526Z,0.60
2019-02-18T22:30:21.631Z,0.30
2019-02-18T22:32:54.758Z,0.10
2019-02-18T22:35:25.739Z,0.00
2019-02-18T22:37:57.792Z,0.00
2019-02-18T22:40:30.471Z,-0.10
2019-02-18T22:43:00.590Z,-0.20
2019-02-18T22:45:34.588Z,-0.10
2019-02-18T22:48:05.610Z,0.00
2019-02-18T22:50:42.410Z,0.00
2019-02-18T22:53:15.403Z,-0.20
2019-02-18T22:55:45.598Z,-0.20
2019-02-18T22:58:19.242Z,-0.30
2019-02-18T23:00:53.354Z,-0.30
2019-02-18T23:03:23.947Z,-0.40
2019-02-18T23:05:59.999Z,-0.40
2019-02-18T23:08:30.082Z,-0.30
2019-02-18T23:11:00.544Z,-0.40
2019-02-18T23:13:33.820Z,-0.40
2019-02-18T23:16:05.956Z,-0.50
2019-02-18T23:18:39.523Z,-0.60
2019-02-18T23:21:16.782Z,-0.80
2019-02-18T23:23:47.848Z,-0.80
2019-02-18T23:26:19.960Z,-0.70
2019-02-18T23:29:09.390Z,-0.80
2019-02-18T23:31:40.403Z,-1.00
2019-02-18T23:34:10.544Z,-1.10
2019-02-18T23:36:40.611Z,-1.10
2019-02-18T23:39:10.735Z,-1.10
2019-02-18T23:41:43.463Z,-1.00
2019-02-18T23:44:15.502Z,-1.00
2019-02-18T23:46:50.550Z,-1.00
2019-02-18T23:49:21.642Z,-1.10
2019-02-18T23:51:58.590Z,-1.00
2019-02-18T23:54:29.595Z,-0.90
2019-02-18T23:57:00.642Z,-0.80
2019-02-18T23:59:32.724Z,-0.80
